createdAt,value
2018-12-01T00:00:40.237Z,15.50
2018-12-01T00:03:10.000Z,14.75
2018-12-01T00:05:38.818Z,15.65
2018-12-01T00:08:07.765Z,13.93
2018-12-01T00:10:37.347Z,12.95
2018-12-01T00:13:06.996Z,14.58
2018-12-01T00:15:36.516Z,14.70
2018-12-01T00:18:06.134Z,13.80
2018-12-01T00:20:37.630Z,14.03
2018-12-01T00:23:08.146Z,15.20
2018-12-01T00:25:36.927Z,15.58
2018-12-01T00:28:12.316Z,14.63
2018-12-01T00:30:41.137Z,15.00
2018-12-01T00:33:10.195Z,14.10
2018-12-01T00:35:39.002Z,14.95
2018-12-01T00:38:08.007Z,13.55
2018-12-01T00:40:36.732Z,12.80
2018-12-01T00:43:06.458Z,14.95
2018-12-01T00:45:35.466Z,14.50
2018-12-01T00:48:04.408Z,13.28
2018-12-01T00:50:33.941Z,13.65
2018-12-01T00:53:02.645Z,16.10
2018-12-01T00:55:31.910Z,14.43
2018-12-01T00:58:01.231Z,13.83
2018-12-01T01:00:30.215Z,13.55
2018-12-01T01:03:01.898Z,14.23
2018-12-01T01:05:31.638Z,15.00
2018-12-01T01:08:01.422Z,14.18
2018-12-01T01:10:31.603Z,15.08
2018-12-01T01:13:00.589Z,15.03
2018-12-01T01:15:30.584Z,15.58
2018-12-01T01:18:00.105Z,16.20
2018-12-01T01:20:28.893Z,15.38
2018-12-01T01:22:58.414Z,17.73
2018-12-01T01:25:27.174Z,16.15
2018-12-01T01:27:56.192Z,15.78
2018-12-01T01:30:25.902Z,16.25
2018-12-01T01:33:06.061Z,17.37
2018-12-01T01:35:34.684Z,19.20
2018-12-01T01:38:04.293Z,18.92
2018-12-01T01:40:34.000Z,14.80
2018-12-01T01:43:03.612Z,16.17
2018-12-01T01:45:32.740Z,17.70
2018-12-01T01:48:01.621Z,16.32
2018-12-01T01:50:31.091Z,17.70
2018-12-01T01:53:00.361Z,14.85
2018-12-01T01:55:29.236Z,18.62
2018-12-01T01:57:58.140Z,15.32
2018-12-01T02:00:27.034Z,15.08
2018-12-01T02:02:55.628Z,16.50
2018-12-01T02:05:24.708Z,15.23
2018-12-01T02:07:53.377Z,18.12
2018-12-01T02:10:22.312Z,15.98
2018-12-01T02:12:51.152Z,15.05
2018-12-01T02:15:19.767Z,15.78
2018-12-01T02:17:48.684Z,16.67
2018-12-01T02:20:18.636Z,14.25
2018-12-01T02:22:47.492Z,16.82
2018-12-01T02:25:17.550Z,17.02
2018-12-01T02:27:46.852Z,16.55
2018-12-01T02:30:17.697Z,15.30
2018-12-01T02:32:47.127Z,13.58
2018-12-01T02:35:21.772Z,16.77
2018-12-01T02:37:51.051Z,14.95
2018-12-01T02:40:19.830Z,13.72
2018-12-01T02:42:48.471Z,13.85
2018-12-01T02:45:28.267Z,14.90
2018-12-01T02:47:56.877Z,15.40
2018-12-01T02:50:26.649Z,15.85
2018-12-01T02:52:59.207Z,17.50
2018-12-01T02:55:28.550Z,15.08
2018-12-01T02:57:57.928Z,17.25
2018-12-01T03:00:26.842Z,12.75
2018-12-01T03:02:55.643Z,15.93
2018-12-01T03:05:24.805Z,15.38
2018-12-01T03:07:53.707Z,16.57
2018-12-01T03:10:23.352Z,15.85
2018-12-01T03:12:53.189Z,17.10
2018-12-01T03:15:22.137Z,16.20
2018-12-01T03:17:52.698Z,16.52
2018-12-01T03:20:23.211Z,15.93
2018-12-01T03:22:51.846Z,16.27
2018-12-01T03:25:21.501Z,15.10
2018-12-01T03:27:51.133Z,15.45
2018-12-01T03:30:23.778Z,14.98
2018-12-01T03:32:53.547Z,15.75
2018-12-01T03:35:23.340Z,15.38
2018-12-01T03:37:52.509Z,16.93
2018-12-01T03:40:22.515Z,16.70
2018-12-01T03:42:53.111Z,15.13
2018-12-01T03:45:22.721Z,13.32
2018-12-01T03:47:51.513Z,17.10
2018-12-01T03:50:22.973Z,17.80
2018-12-01T03:52:57.024Z,18.55
2018-12-01T03:55:28.733Z,21.37
2018-12-01T03:57:57.727Z,16.73
2018-12-01T04:00:26.634Z,19.60
2018-12-01T04:02:57.057Z,19.73
2018-12-01T04:05:25.805Z,20.20
2018-12-01T04:07:54.425Z,18.32
2018-12-01T04:10:24.006Z,19.92
2018-12-01T04:12:53.708Z,21.90
2018-12-01T04:15:23.043Z,18.30
2018-12-01T04:17:51.653Z,20.92
2018-12-01T04:20:21.240Z,19.27
2018-12-01T04:22:50.734Z,19.55
2018-12-01T04:25:19.360Z,19.05
2018-12-01T04:27:48.765Z,21.55
2018-12-01T04:30:20.282Z,16.93
2018-12-01T04:32:49.022Z,19.92
2018-12-01T04:35:19.366Z,18.57
2018-12-01T04:37:50.224Z,19.87
2018-12-01T04:40:19.158Z,18.95
2018-12-01T04:42:48.662Z,18.75
2018-12-01T04:45:18.053Z,19.73
2018-12-01T04:47:47.118Z,19.45
2018-12-01T04:50:16.888Z,17.67
2018-12-01T04:52:47.447Z,18.20
2018-12-01T04:55:17.463Z,18.52
2018-12-01T04:57:46.907Z,19.37
2018-12-01T05:00:17.592Z,20.45
2018-12-01T05:02:46.346Z,24.37
2018-12-01T05:05:16.504Z,18.52
2018-12-01T05:07:45.394Z,19.75
2018-12-01T05:10:15.002Z,17.20
2018-12-01T05:12:43.731Z,17.98
2018-12-01T05:15:16.125Z,17.42
2018-12-01T05:17:45.590Z,20.00
2018-12-01T05:20:18.031Z,17.42
2018-12-01T05:22:46.737Z,18.57
2018-12-01T05:25:16.180Z,18.00
2018-12-01T05:27:45.032Z,16.60
2018-12-01T05:30:14.150Z,17.35
2018-12-01T05:32:42.838Z,16.07
2018-12-01T05:35:18.920Z,19.32
2018-12-01T05:37:47.810Z,19.15
2018-12-01T05:40:16.663Z,15.98
2018-12-01T05:42:45.635Z,17.85
2018-12-01T05:45:17.610Z,16.07
2018-12-01T05:47:46.297Z,16.97
2018-12-01T05:50:20.934Z,16.90
2018-12-01T05:52:50.029Z,14.85
2018-12-01T05:55:19.500Z,16.10
2018-12-01T05:57:48.185Z,16.97
2018-12-01T06:00:18.044Z,16.23
2018-12-01T06:02:47.745Z,16.50
2018-12-01T06:05:16.677Z,19.80
2018-12-01T06:07:46.488Z,14.58
2018-12-01T06:10:22.061Z,15.13
2018-12-01T06:12:51.995Z,15.18
2018-12-01T06:15:21.661Z,14.53
2018-12-01T06:17:50.283Z,15.63
2018-12-01T06:20:21.993Z,14.70
2018-12-01T06:22:50.659Z,14.95
2018-12-01T06:25:22.176Z,14.75
2018-12-01T06:27:50.969Z,14.33
2018-12-01T06:30:20.985Z,14.35
2018-12-01T06:32:51.012Z,13.53
2018-12-01T06:35:19.953Z,14.03
2018-12-01T06:37:48.873Z,13.13
2018-12-01T06:40:19.415Z,14.43
2018-12-01T06:42:48.464Z,14.87
2018-12-01T06:45:17.904Z,16.02
2018-12-01T06:47:46.759Z,13.93
2018-12-01T06:50:20.628Z,32.78
2018-12-01T06:52:49.741Z,17.95
2018-12-01T06:55:18.542Z,15.55
2018-12-01T06:57:47.916Z,15.50
2018-12-01T07:00:20.448Z,14.23
2018-12-01T07:02:49.763Z,14.28
2018-12-01T07:05:18.968Z,13.65
2018-12-01T07:07:47.986Z,16.12
2018-12-01T07:10:18.462Z,13.68
2018-12-01T07:12:49.633Z,15.30
2018-12-01T07:15:20.306Z,14.98
2018-12-01T07:17:48.955Z,14.93
2018-12-01T07:20:18.775Z,14.25
2018-12-01T07:22:48.346Z,15.08
2018-12-01T07:25:17.180Z,15.43
2018-12-01T07:27:45.988Z,14.70
2018-12-01T07:30:15.489Z,15.98
2018-12-01T07:32:45.293Z,13.13
2018-12-01T07:35:14.055Z,13.60
2018-12-01T07:37:42.679Z,14.33
2018-12-01T07:40:15.175Z,15.30
2018-12-01T07:42:44.053Z,14.35
2018-12-01T07:45:14.808Z,14.53
2018-12-01T07:47:43.600Z,14.73
2018-12-01T07:50:17.022Z,16.32
2018-12-01T07:52:49.189Z,16.40
2018-12-01T07:55:18.475Z,19.05
2018-12-01T07:57:47.266Z,15.78
2018-12-01T08:00:17.037Z,18.07
2018-12-01T08:02:47.554Z,15.38
2018-12-01T08:05:16.995Z,17.10
2018-12-01T08:07:45.756Z,16.87
2018-12-01T08:10:15.441Z,14.63
2018-12-01T08:12:45.823Z,17.95
2018-12-01T08:15:15.851Z,15.25
2018-12-01T08:17:44.848Z,14.30
2018-12-01T08:20:14.660Z,14.05
2018-12-01T08:22:49.856Z,15.28
2018-12-01T08:25:20.805Z,15.93
2018-12-01T08:27:54.730Z,13.50
2018-12-01T08:30:26.268Z,13.08
2018-12-01T08:32:55.130Z,14.47
2018-12-01T08:35:24.483Z,17.50
2018-12-01T08:37:53.483Z,17.10
2018-12-01T08:40:23.723Z,16.80
2018-12-01T08:42:52.786Z,16.10
2018-12-01T08:45:21.524Z,14.98
2018-12-01T08:47:56.775Z,14.23
2018-12-01T08:50:25.555Z,15.30
2018-12-01T08:52:54.604Z,12.85
2018-12-01T08:55:24.512Z,11.35
2018-12-01T08:58:00.680Z,12.98
2018-12-01T09:00:34.864Z,12.93
2018-12-01T09:03:09.614Z,11.83
2018-12-01T09:05:38.665Z,12.53
2018-12-01T09:08:07.811Z,12.15
2018-12-01T09:10:37.363Z,12.90
2018-12-01T09:13:06.064Z,14.38
2018-12-01T09:15:36.977Z,10.53
2018-12-01T09:18:03.385Z,13.05
2018-12-01T09:20:32.438Z,13.72
2018-12-01T09:23:01.970Z,14.90
2018-12-01T09:25:30.556Z,14.13
2018-12-01T09:27:59.605Z,11.90
2018-12-01T09:30:31.784Z,11.70
2018-12-01T09:33:01.335Z,12.47
2018-12-01T09:35:30.847Z,13.95
2018-12-01T09:37:59.914Z,14.03
2018-12-01T09:40:28.857Z,10.82
2018-12-01T09:42:58.022Z,11.33
2018-12-01T09:45:27.053Z,11.30
2018-12-01T09:47:56.539Z,9.98
2018-12-01T09:50:26.192Z,9.25
2018-12-01T09:52:57.555Z,10.98
2018-12-01T09:55:28.562Z,10.78
2018-12-01T09:57:58.189Z,10.10
2018-12-01T10:00:31.001Z,13.13
2018-12-01T10:03:01.749Z,10.60
2018-12-01T10:05:31.074Z,11.10
2018-12-01T10:08:00.638Z,10.85
2018-12-01T10:10:30.323Z,11.22
2018-12-01T10:12:59.357Z,11.15
2018-12-01T10:15:33.416Z,11.10
2018-12-01T10:18:02.824Z,12.33
2018-12-01T10:20:34.137Z,9.95
2018-12-01T10:23:05.007Z,9.43
2018-12-01T10:25:33.593Z,8.88
2018-12-01T10:28:04.802Z,11.25
2018-12-01T10:30:33.512Z,9.45
2018-12-01T10:33:03.312Z,9.20
2018-12-01T10:35:32.323Z,9.40
2018-12-01T10:38:17.515Z,8.18
2018-12-01T10:40:46.756Z,8.50
2018-12-01T10:43:15.730Z,8.73
2018-12-01T10:45:45.249Z,9.53
2018-12-01T10:48:13.912Z,10.70
2018-12-01T10:50:43.623Z,8.63
2018-12-01T10:53:12.393Z,9.28
2018-12-01T10:55:41.217Z,8.15
2018-12-01T10:58:13.299Z,8.93
2018-12-01T11:00:48.447Z,8.33
2018-12-01T11:03:22.367Z,11.05
2018-12-01T11:05:51.490Z,9.53
2018-12-01T11:08:20.116Z,12.88
2018-12-01T11:10:49.016Z,9.48
2018-12-01T11:13:18.079Z,8.15
2018-12-01T11:15:47.596Z,9.65
2018-12-01T11:18:17.045Z,11.55
2018-12-01T11:20:45.997Z,15.15
2018-12-01T11:23:15.390Z,11.05
2018-12-01T11:25:44.238Z,11.15
2018-12-01T11:28:12.955Z,10.75
2018-12-01T11:30:42.792Z,9.25
2018-12-01T11:33:12.217Z,10.60
2018-12-01T11:35:41.062Z,11.45
2018-12-01T11:38:10.426Z,9.68
2018-12-01T11:40:39.857Z,10.35
2018-12-01T11:43:09.661Z,10.13
2018-12-01T11:45:39.204Z,8.58
2018-12-01T11:48:08.716Z,7.10
2018-12-01T11:50:39.281Z,9.63
2018-12-01T11:53:08.770Z,9.88
2018-12-01T11:55:38.383Z,8.30
2018-12-01T11:58:07.061Z,10.53
2018-12-01T12:00:36.625Z,8.63
2018-12-01T12:03:05.888Z,8.45
2018-12-01T12:05:34.605Z,7.08
2018-12-01T12:08:25.154Z,8.08
2018-12-01T12:10:54.817Z,9.18
2018-12-01T12:13:24.738Z,6.80
2018-12-01T12:15:53.722Z,9.85
2018-12-01T12:18:22.873Z,7.45
2018-12-01T12:20:51.694Z,10.28
2018-12-01T12:23:20.646Z,8.83
2018-12-01T12:25:50.019Z,8.73
2018-12-01T12:28:18.847Z,6.20
2018-12-01T12:30:47.630Z,6.95
2018-12-01T12:33:16.699Z,8.15
2018-12-01T12:35:45.585Z,7.40
2018-12-01T12:38:15.093Z,7.92
2018-12-01T12:40:44.473Z,8.45
2018-12-01T12:43:13.869Z,9.45
2018-12-01T12:45:42.674Z,7.70
2018-12-01T12:48:12.321Z,8.13
2018-12-01T12:50:41.789Z,5.05
2018-12-01T12:53:11.523Z,5.70
2018-12-01T12:55:40.274Z,4.62
2018-12-01T12:58:09.167Z,5.03
2018-12-01T13:00:38.020Z,6.70
2018-12-01T13:03:10.475Z,7.75
2018-12-01T13:05:41.480Z,5.90
2018-12-01T13:08:11.277Z,5.78
2018-12-01T13:10:40.086Z,6.95
2018-12-01T13:13:08.751Z,6.97
2018-12-01T13:15:38.872Z,9.65
2018-12-01T13:18:10.781Z,8.85
2018-12-01T13:20:40.241Z,10.13
2018-12-01T13:23:09.309Z,9.38
2018-12-01T13:25:39.188Z,7.95
2018-12-01T13:28:14.914Z,11.35
2018-12-01T13:30:45.970Z,9.60
2018-12-01T13:33:15.395Z,8.78
2018-12-01T13:35:44.192Z,9.55
2018-12-01T13:38:13.277Z,8.95
2018-12-01T13:40:42.713Z,7.87
2018-12-01T13:43:11.468Z,11.00
2018-12-01T13:45:41.425Z,7.72
2018-12-01T13:48:10.479Z,8.18
2018-12-01T13:50:39.861Z,7.53
2018-12-01T13:53:10.261Z,7.50
2018-12-01T13:55:39.380Z,8.53
2018-12-01T13:58:08.304Z,7.45
2018-12-01T14:00:37.439Z,7.60
2018-12-01T14:03:06.623Z,7.53
2018-12-01T14:05:35.989Z,6.80
2018-12-01T14:08:05.340Z,6.42
2018-12-01T14:10:35.099Z,5.87
2018-12-01T14:13:06.463Z,5.95
2018-12-01T14:15:35.139Z,6.00
2018-12-01T14:18:04.722Z,7.55
2018-12-01T14:20:33.378Z,8.20
2018-12-01T14:23:02.176Z,5.83
2018-12-01T14:25:31.496Z,5.22
2018-12-01T14:28:04.593Z,7.30
2018-12-01T14:30:33.930Z,6.08
2018-12-01T14:33:02.993Z,5.33
2018-12-01T14:35:34.389Z,5.60
2018-12-01T14:38:07.896Z,4.83
2018-12-01T14:40:37.472Z,6.03
2018-12-01T14:43:06.084Z,6.15
2018-12-01T14:45:34.752Z,9.20
2018-12-01T14:48:03.627Z,8.80
2018-12-01T14:50:32.626Z,9.88
2018-12-01T14:53:02.194Z,10.40
2018-12-01T14:55:30.882Z,9.88
2018-12-01T14:57:59.885Z,11.35
2018-12-01T15:00:28.872Z,10.10
2018-12-01T15:02:58.380Z,10.20
2018-12-01T15:05:28.152Z,9.23
2018-12-01T15:07:57.124Z,11.00
2018-12-01T15:10:27.386Z,10.70
2018-12-01T15:12:56.392Z,11.35
2018-12-01T15:15:26.728Z,10.70
2018-12-01T15:17:55.591Z,12.23
2018-12-01T15:20:26.062Z,12.20
2018-12-01T15:22:56.642Z,10.93
2018-12-01T15:25:28.032Z,12.53
2018-12-01T15:27:57.438Z,10.32
2018-12-01T15:30:27.967Z,9.18
2018-12-01T15:33:15.128Z,11.63
2018-12-01T15:35:46.726Z,11.25
2018-12-01T15:38:15.797Z,11.50
2018-12-01T15:40:48.576Z,11.88
2018-12-01T15:43:17.270Z,11.20
2018-12-01T15:45:46.434Z,10.72
2018-12-01T15:48:15.457Z,12.25
2018-12-01T15:50:44.906Z,11.55
2018-12-01T15:53:15.559Z,11.60
2018-12-01T15:55:45.090Z,13.45
2018-12-01T15:58:14.362Z,11.40
2018-12-01T16:00:44.048Z,9.13
2018-12-01T16:03:12.920Z,12.55
2018-12-01T16:05:41.665Z,13.72
2018-12-01T16:08:11.592Z,10.40
2018-12-01T16:10:41.387Z,11.65
2018-12-01T16:13:18.614Z,16.30
2018-12-01T16:15:49.144Z,11.38
2018-12-01T16:18:18.028Z,13.48
2018-12-01T16:20:47.236Z,11.00
2018-12-01T16:23:16.531Z,12.70
2018-12-01T16:25:45.869Z,11.85
2018-12-01T16:28:14.666Z,10.18
2018-12-01T16:30:45.525Z,9.65
2018-12-01T16:33:22.100Z,9.98
2018-12-01T16:35:51.874Z,13.83
2018-12-01T16:38:26.027Z,10.53
2018-12-01T16:41:01.286Z,10.03
2018-12-01T16:43:32.471Z,8.38
2018-12-01T16:46:02.142Z,7.10
2018-12-01T16:48:31.038Z,12.30
2018-12-01T16:51:00.359Z,9.48
2018-12-01T16:53:29.797Z,10.82
2018-12-01T16:55:58.655Z,11.53
2018-12-01T16:58:27.824Z,9.20
2018-12-01T17:00:57.531Z,11.48
2018-12-01T17:03:26.732Z,10.35
2018-12-01T17:05:57.608Z,12.85
2018-12-01T17:08:27.000Z,14.83
2018-12-01T17:10:55.679Z,11.85
2018-12-01T17:13:24.535Z,14.30
2018-12-01T17:15:53.731Z,13.43
2018-12-01T17:18:22.630Z,12.50
2018-12-01T17:20:51.486Z,9.35
2018-12-01T17:23:20.275Z,9.38
2018-12-01T17:25:49.042Z,8.53
2018-12-01T17:28:19.089Z,11.35
2018-12-01T17:30:48.200Z,10.13
2018-12-01T17:33:17.674Z,9.20
2018-12-01T17:35:47.138Z,10.45
2018-12-01T17:38:17.856Z,8.93
2018-12-01T17:40:52.248Z,9.45
2018-12-01T17:43:25.528Z,8.40
2018-12-01T17:45:54.118Z,9.63
2018-12-01T17:48:23.274Z,13.28
2018-12-01T17:50:51.947Z,10.35
2018-12-01T17:53:20.651Z,11.18
2018-12-01T17:55:49.476Z,12.03
2018-12-01T17:58:18.892Z,12.80
2018-12-01T18:00:48.558Z,12.65
2018-12-01T18:03:18.232Z,11.70
2018-12-01T18:05:48.259Z,10.80
2018-12-01T18:08:18.852Z,13.75
2018-12-01T18:10:49.681Z,11.90
2018-12-01T18:13:18.688Z,12.05
2018-12-01T18:15:47.585Z,12.78
2018-12-01T18:18:17.267Z,11.12
2018-12-01T18:20:46.292Z,12.85
2018-12-01T18:23:17.590Z,11.22
2018-12-01T18:25:49.657Z,11.97
2018-12-01T18:28:24.220Z,12.33
2018-12-01T18:30:53.028Z,15.68
2018-12-01T18:33:27.182Z,16.30
2018-12-01T18:35:55.932Z,13.83
2018-12-01T18:38:24.937Z,16.87
2018-12-01T18:40:53.751Z,19.80
2018-12-01T18:43:22.402Z,10.93
2018-12-01T18:45:53.046Z,9.80
2018-12-01T18:48:21.760Z,8.80
2018-12-01T18:50:51.081Z,8.13
2018-12-01T18:53:20.663Z,9.45
2018-12-01T18:55:55.151Z,8.95
2018-12-01T18:58:24.277Z,13.35
2018-12-01T19:00:54.395Z,10.88
2018-12-01T19:03:28.613Z,8.85
2018-12-01T19:05:57.908Z,11.18
2018-12-01T19:08:26.808Z,9.90
2018-12-01T19:10:55.789Z,8.05
2018-12-01T19:13:26.231Z,7.10
2018-12-01T19:15:55.199Z,8.50
2018-12-01T19:18:24.181Z,8.45
2018-12-01T19:20:53.324Z,9.58
2018-12-01T19:23:21.936Z,9.35
2018-12-01T19:25:52.423Z,7.78
2018-12-01T19:28:21.963Z,7.45
2018-12-01T19:30:50.849Z,8.95
2018-12-01T19:33:21.135Z,9.20
2018-12-01T19:35:51.526Z,8.28
2018-12-01T19:38:25.040Z,10.00
2018-12-01T19:40:54.837Z,8.23
2018-12-01T19:43:24.019Z,7.67
2018-12-01T19:45:53.496Z,7.47
2018-12-01T19:48:22.180Z,8.93
2018-12-01T19:50:50.792Z,9.43
2018-12-01T19:53:20.410Z,9.65
2018-12-01T19:55:50.999Z,10.48
2018-12-01T19:58:25.171Z,11.75
2018-12-01T20:00:55.440Z,8.80
2018-12-01T20:03:25.432Z,10.82
2018-12-01T20:05:54.912Z,9.90
2018-12-01T20:08:24.352Z,10.08
2018-12-01T20:11:00.725Z,10.82
2018-12-01T20:13:32.646Z,8.00
2018-12-01T20:16:05.883Z,8.63
2018-12-01T20:18:34.712Z,7.90
2018-12-01T20:21:03.837Z,5.95
2018-12-01T20:23:32.956Z,7.45
2018-12-01T20:26:01.958Z,9.08
2018-12-01T20:28:30.561Z,8.73
2018-12-01T20:31:00.121Z,8.38
2018-12-01T20:33:29.182Z,8.95
2018-12-01T20:36:01.844Z,7.60
2018-12-01T20:39:35.176Z,8.68
2018-12-01T20:42:03.855Z,7.00
2018-12-01T20:44:32.690Z,5.72
2018-12-01T20:47:01.848Z,4.58
2018-12-01T20:49:30.704Z,6.22
2018-12-01T20:51:59.339Z,5.40
2018-12-01T20:54:36.399Z,5.62
2018-12-01T20:57:15.223Z,5.55
2018-12-01T20:59:44.171Z,6.72
2018-12-01T21:02:13.014Z,8.30
2018-12-01T21:04:42.353Z,7.58
2018-12-01T21:07:11.470Z,7.03
2018-12-01T21:09:40.165Z,6.62
2018-12-01T21:12:10.332Z,7.15
2018-12-01T21:14:39.251Z,8.15
2018-12-01T21:17:07.909Z,11.68
2018-12-01T21:19:36.722Z,11.73
2018-12-01T21:22:06.488Z,10.32
2018-12-01T21:24:35.829Z,11.22
2018-12-01T21:27:05.108Z,8.98
2018-12-01T21:29:34.013Z,10.63
2018-12-01T21:32:02.849Z,9.28
2018-12-01T21:34:31.609Z,7.87
2018-12-01T21:37:00.536Z,9.85
2018-12-01T21:39:29.129Z,9.33
2018-12-01T21:41:57.890Z,7.65
2018-12-01T21:44:27.412Z,8.78
2018-12-01T21:46:56.538Z,7.97
2018-12-01T21:49:26.280Z,10.30
2018-12-01T21:51:55.077Z,11.10
2018-12-01T21:54:24.457Z,10.45
2018-12-01T21:56:54.074Z,9.28
2018-12-01T21:59:22.808Z,7.72
2018-12-01T22:01:51.804Z,9.35
2018-12-01T22:04:20.658Z,9.50
2018-12-01T22:06:49.299Z,7.97
2018-12-01T22:09:18.102Z,8.73
2018-12-01T22:11:47.415Z,9.45
2018-12-01T22:14:17.056Z,7.62
2018-12-01T22:16:46.607Z,8.10
2018-12-01T22:19:15.217Z,9.50
2018-12-01T22:21:43.998Z,9.85
2018-12-01T22:24:13.231Z,9.30
2018-12-01T22:26:42.303Z,8.33
2018-12-01T22:29:11.280Z,10.55
2018-12-01T22:31:40.114Z,9.33
2018-12-01T22:34:09.485Z,7.20
2018-12-01T22:36:39.106Z,7.10
2018-12-01T22:39:10.474Z,9.08
2018-12-01T22:41:39.361Z,8.83
2018-12-01T22:44:08.258Z,9.70
2018-12-01T22:46:37.060Z,9.05
2018-12-01T22:49:06.348Z,7.30
2018-12-01T22:51:35.192Z,6.83
2018-12-01T22:54:04.067Z,7.72
2018-12-01T22:56:33.129Z,8.03
2018-12-01T22:59:02.014Z,5.97
2018-12-01T23:01:31.347Z,5.20
2018-12-01T23:04:00.193Z,5.75
2018-12-01T23:06:29.110Z,6.35
2018-12-01T23:08:57.725Z,4.37
2018-12-01T23:11:26.592Z,4.92
2018-12-01T23:13:55.485Z,3.80
2018-12-01T23:16:24.200Z,5.83
2018-12-01T23:18:53.063Z,4.53
2018-12-01T23:21:21.742Z,4.97
2018-12-01T23:23:50.568Z,6.87
2018-12-01T23:26:19.400Z,6.35
2018-12-01T23:28:48.203Z,5.55
2018-12-01T23:31:16.974Z,4.10
2018-12-01T23:33:45.817Z,4.33
2018-12-01T23:36:17.287Z,4.00
2018-12-01T23:38:46.611Z,5.08
2018-12-01T23:41:15.221Z,4.90
2018-12-01T23:43:43.832Z,5.00
2018-12-01T23:46:12.497Z,5.97
2018-12-01T23:48:41.989Z,4.22
2018-12-01T23:51:11.603Z,5.37
2018-12-01T23:53:40.306Z,4.00
2018-12-01T23:56:09.266Z,5.05
2018-12-01T23:58:38.011Z,3.75
